Addison Township, Michigan
Current Conditions -  °F | °C
As of 6:14 AM on Tuesday 21 Oct 2014 (Local Time) from KD95 Reporting Station
Overcast Overcast  
Wind Chill:   Ceiling: 1500
Heat Index:   Visibility: 10mi
Dew Point:   Wind: 6mph
Humidity: 90%   Direction: 360°N
Pressure: 29.93"   Gusts: NA
Location:  42.8434°N, 83.1398°W
Report Text: KD95 211014Z AUTO 36005KT 10SM SCT011 OVC015 08/06 A2993 RMK AO2 T00800064
Loading
Personal Weather Stations






























Interactive Weather Map
Tropical Storm Tracking
New forecast layout! Learn more

10-Day Weather Forecast

Advertisements
Track Severe Weather on mobile